createdAt,value
2018-04-22T00:00:29.569Z,59.40
2018-04-22T00:02:57.509Z,59.40
2018-04-22T00:05:25.328Z,59.50
2018-04-22T00:07:53.308Z,60.20
2018-04-22T00:10:21.889Z,59.30
2018-04-22T00:12:49.950Z,59.40
2018-04-22T00:15:17.707Z,59.40
2018-04-22T00:17:45.507Z,60.00
2018-04-22T00:20:14.228Z,60.20
2018-04-22T00:22:42.267Z,60.20
2018-04-22T00:25:11.088Z,59.70
2018-04-22T00:27:39.207Z,60.10
2018-04-22T00:30:07.156Z,60.10
2018-04-22T00:32:35.228Z,60.30
2018-04-22T00:35:03.329Z,60.10
2018-04-22T00:37:31.374Z,60.40
2018-04-22T00:39:59.249Z,60.30
2018-04-22T00:42:27.388Z,60.50
2018-04-22T00:44:55.172Z,60.50
2018-04-22T00:47:23.770Z,60.80
2018-04-22T00:49:51.710Z,60.80
2018-04-22T00:54:51.511Z,61.50
2018-04-22T00:57:19.410Z,61.30
2018-04-22T00:59:47.532Z,61.50
2018-04-22T01:02:15.449Z,61.80
2018-04-22T01:04:43.389Z,62.20
2018-04-22T01:07:11.291Z,62.40
2018-04-22T01:09:39.349Z,62.60
2018-04-22T01:12:07.329Z,63.00
2018-04-22T01:14:35.310Z,63.20
2018-04-22T01:17:03.413Z,63.40
2018-04-22T01:19:31.511Z,63.30
2018-04-22T01:21:59.370Z,63.30
2018-04-22T01:24:27.231Z,63.50
2018-04-22T01:26:55.033Z,63.60
2018-04-22T01:29:22.934Z,63.80
2018-04-22T01:31:50.753Z,64.80
2018-04-22T01:34:18.881Z,64.00
2018-04-22T01:36:46.634Z,64.00
2018-04-22T01:41:46.416Z,64.10
2018-04-22T01:44:14.802Z,64.30
2018-04-22T01:46:42.857Z,64.30
2018-04-22T01:49:10.695Z,65.20
2018-04-22T01:51:38.455Z,64.30
2018-04-22T01:54:06.355Z,64.50
2018-04-22T01:56:34.234Z,64.50
2018-04-22T01:59:02.174Z,64.50
2018-04-22T02:01:29.976Z,64.80
2018-04-22T02:03:57.916Z,64.90
2018-04-22T02:06:25.695Z,64.70
2018-04-22T02:08:53.535Z,65.20
2018-04-22T02:11:21.684Z,65.80
2018-04-22T02:13:49.694Z,66.10
2018-04-22T02:16:17.675Z,65.80
2018-04-22T02:18:45.855Z,66.10
2018-04-22T02:21:13.655Z,66.30
2018-04-22T02:23:42.395Z,66.20
2018-04-22T02:26:10.376Z,66.10
2018-04-22T02:28:38.236Z,66.30
2018-04-22T02:31:06.234Z,66.70
2018-04-22T02:33:35.653Z,67.80
2018-04-22T02:36:03.634Z,67.50
2018-04-22T02:38:31.554Z,67.60
2018-04-22T02:41:00.250Z,68.40
2018-04-22T02:43:28.163Z,68.30
2018-04-22T02:45:56.034Z,68.30
2018-04-22T02:48:24.030Z,68.70
2018-04-22T02:50:51.990Z,68.70
2018-04-22T02:53:19.929Z,69.00
2018-04-22T02:55:47.916Z,69.00
2018-04-22T02:58:16.050Z,69.10
2018-04-22T03:00:43.970Z,69.40
2018-04-22T03:03:11.850Z,69.50
2018-04-22T03:05:40.469Z,69.70
2018-04-22T03:08:08.429Z,69.70
2018-04-22T03:10:36.335Z,70.00
2018-04-22T03:13:04.970Z,70.20
2018-04-22T03:15:32.729Z,70.20
2018-04-22T03:18:01.389Z,70.60
2018-04-22T03:20:29.488Z,70.50
2018-04-22T03:22:57.429Z,70.70
2018-04-22T03:25:25.308Z,70.70
2018-04-22T03:27:53.188Z,70.70
2018-04-22T03:30:20.949Z,70.70
2018-04-22T03:32:48.949Z,71.10
2018-04-22T03:35:16.889Z,71.20
2018-04-22T03:37:45.009Z,71.30
2018-04-22T03:40:12.949Z,71.30
2018-04-22T03:42:40.710Z,71.30
2018-04-22T03:45:08.750Z,71.50
2018-04-22T03:47:36.530Z,71.50
2018-04-22T03:50:04.472Z,71.50
2018-04-22T03:52:32.619Z,71.50
2018-04-22T03:55:00.636Z,71.50
2018-04-22T03:57:28.510Z,71.30
2018-04-22T03:59:56.516Z,71.30
2018-04-22T04:02:24.550Z,71.10
2018-04-22T04:04:52.450Z,71.00
2018-04-22T04:07:20.411Z,71.30
2018-04-22T04:09:48.330Z,71.10
2018-04-22T04:12:16.251Z,71.20
2018-04-22T04:14:44.151Z,71.10
2018-04-22T04:17:12.092Z,71.30
2018-04-22T04:19:51.991Z,71.50
2018-04-22T04:22:31.730Z,71.90
2018-04-22T04:28:18.955Z,71.80
2018-04-22T04:30:46.849Z,71.10
2018-04-22T04:33:14.710Z,68.60
2018-04-22T04:35:42.831Z,66.10
2018-04-22T04:38:11.090Z,63.40
2018-04-22T04:40:38.969Z,61.10
2018-04-22T04:43:06.775Z,59.20
2018-04-22T04:45:34.670Z,57.90
2018-04-22T04:48:02.610Z,56.00
2018-04-22T04:50:30.430Z,54.10
2018-04-22T04:52:58.330Z,52.50
2018-04-22T04:55:26.470Z,51.20
2018-04-22T04:57:54.938Z,49.70
2018-04-22T05:00:22.645Z,48.90
2018-04-22T05:02:50.476Z,47.60
2018-04-22T05:05:18.316Z,46.40
2018-04-22T05:07:46.199Z,46.10
2018-04-22T05:10:14.057Z,45.50
2018-04-22T05:12:41.895Z,44.80
2018-04-22T05:15:10.035Z,44.70
2018-04-22T05:17:37.835Z,44.60
2018-04-22T05:20:05.715Z,44.70
2018-04-22T05:22:34.295Z,43.20
2018-04-22T05:25:02.177Z,43.20
2018-04-22T05:27:30.079Z,43.70
2018-04-22T05:29:57.971Z,44.40
2018-04-22T05:32:25.952Z,43.60
2018-04-22T05:34:53.811Z,42.30
2018-04-22T05:37:23.251Z,42.70
2018-04-22T05:39:51.170Z,43.60
2018-04-22T05:42:19.271Z,41.40
2018-04-22T05:44:47.411Z,39.30
2018-04-22T05:47:15.249Z,38.30
2018-04-22T05:49:43.090Z,37.40
2018-04-22T05:52:10.997Z,36.60
2018-04-22T05:54:38.813Z,35.70
2018-04-22T05:57:06.669Z,35.70
2018-04-22T05:59:34.569Z,35.50
2018-04-22T06:02:02.413Z,35.30
2018-04-22T06:04:30.454Z,34.30
2018-04-22T06:06:58.291Z,34.30
2018-04-22T06:09:27.072Z,35.50
2018-04-22T06:11:54.871Z,35.40
2018-04-22T06:14:23.232Z,37.00
2018-04-22T06:16:51.359Z,37.40
2018-04-22T06:19:19.257Z,38.40
2018-04-22T06:21:48.773Z,38.30
2018-04-22T06:24:16.973Z,38.30
2018-04-22T06:26:45.132Z,39.80
2018-04-22T06:29:13.011Z,39.90
2018-04-22T06:31:41.711Z,40.50
2018-04-22T06:34:09.511Z,40.50
2018-04-22T06:36:37.431Z,41.20
2018-04-22T06:39:05.457Z,42.10
2018-04-22T06:41:33.311Z,41.70
2018-04-22T06:44:01.551Z,42.00
2018-04-22T06:46:29.492Z,42.30
2018-04-22T06:48:57.896Z,42.10
2018-04-22T06:51:26.130Z,43.70
2018-04-22T06:53:54.431Z,42.60
2018-04-22T06:56:22.649Z,43.20
2018-04-22T06:58:50.533Z,42.90
2018-04-22T07:01:18.731Z,43.90
2018-04-22T07:03:46.531Z,42.80
2018-04-22T07:06:14.549Z,45.60
2018-04-22T07:08:42.569Z,44.60
2018-04-22T07:11:10.409Z,44.70
2018-04-22T07:13:38.651Z,45.30
2018-04-22T07:16:06.711Z,45.10
2018-04-22T07:18:35.030Z,45.10
2018-04-22T07:21:03.410Z,44.80
2018-04-22T07:23:31.211Z,43.70
2018-04-22T07:25:59.030Z,43.50
2018-04-22T07:28:26.929Z,43.80
2018-04-22T07:30:55.630Z,44.20
2018-04-22T07:33:24.390Z,44.10
2018-04-22T07:35:52.370Z,44.10
2018-04-22T07:38:20.438Z,44.50
2018-04-22T07:40:48.376Z,45.30
2018-04-22T07:43:16.436Z,42.20
2018-04-22T07:45:44.376Z,42.10
2018-04-22T07:48:12.536Z,43.10
2018-04-22T07:50:40.749Z,44.70
2018-04-22T07:53:08.549Z,42.80
2018-04-22T07:55:37.428Z,43.50
2018-04-22T07:58:05.472Z,43.50
2018-04-22T08:00:33.179Z,44.00
2018-04-22T08:03:01.178Z,43.20
2018-04-22T08:05:29.075Z,43.60
2018-04-22T08:07:57.140Z,44.60
2018-04-22T08:10:25.032Z,45.40
2018-04-22T08:12:54.833Z,42.40
2018-04-22T08:15:22.713Z,43.10
2018-04-22T08:17:50.994Z,44.60
2018-04-22T08:20:18.754Z,45.50
2018-04-22T08:22:47.413Z,43.70
2018-04-22T08:25:15.293Z,41.10
2018-04-22T08:27:43.041Z,42.50
2018-04-22T08:30:10.751Z,41.70
2018-04-22T08:32:38.436Z,42.80
2018-04-22T08:35:06.131Z,42.20
2018-04-22T08:37:33.844Z,41.80
2018-04-22T08:40:01.570Z,40.30
2018-04-22T08:42:29.291Z,42.00
2018-04-22T08:44:57.028Z,43.10
2018-04-22T08:47:25.494Z,43.90
2018-04-22T08:49:53.358Z,43.90
2018-04-22T08:52:21.272Z,43.20
2018-04-22T08:54:49.671Z,41.70
2018-04-22T08:57:17.493Z,42.30
2018-04-22T08:59:45.800Z,41.60
2018-04-22T09:02:15.175Z,42.70
2018-04-22T09:04:43.135Z,43.10
2018-04-22T09:07:11.122Z,42.90
2018-04-22T09:09:39.354Z,44.00
2018-04-22T09:12:07.417Z,42.20
2018-04-22T09:14:35.315Z,43.10
2018-04-22T09:17:03.336Z,43.70
2018-04-22T09:19:31.175Z,43.70
2018-04-22T09:21:59.138Z,42.60
2018-04-22T09:24:27.055Z,43.10
2018-04-22T09:26:54.803Z,42.10
2018-04-22T09:29:22.695Z,41.80
2018-04-22T09:31:50.681Z,41.90
2018-04-22T09:34:18.454Z,42.00
2018-04-22T09:36:47.414Z,41.20
2018-04-22T09:39:15.777Z,41.20
2018-04-22T09:41:43.614Z,41.70
2018-04-22T09:44:11.491Z,42.00
2018-04-22T09:46:40.331Z,41.70
2018-04-22T09:51:40.333Z,42.10
2018-04-22T09:54:08.351Z,39.90
2018-04-22T09:56:36.931Z,39.70
2018-04-22T09:59:05.650Z,41.30
2018-04-22T10:01:36.904Z,41.40
2018-04-22T10:04:12.495Z,41.90
2018-04-22T10:06:40.377Z,40.90
2018-04-22T10:09:08.442Z,39.70
2018-04-22T10:11:36.257Z,40.40
2018-04-22T10:14:04.095Z,40.10
2018-04-22T10:16:31.991Z,39.90
2018-04-22T10:18:59.815Z,40.50
2018-04-22T10:21:28.053Z,38.80
2018-04-22T10:23:55.436Z,39.60
2018-04-22T10:26:23.631Z,40.60
2018-04-22T10:28:51.251Z,40.60
2018-04-22T10:31:19.130Z,43.50
2018-04-22T10:33:46.975Z,41.80
2018-04-22T10:36:15.054Z,43.30
2018-04-22T10:38:42.354Z,43.40
2018-04-22T10:41:10.130Z,41.30
2018-04-22T10:43:37.734Z,40.60
2018-04-22T10:46:05.810Z,39.60
2018-04-22T10:48:34.290Z,41.30
2018-04-22T10:51:03.151Z,40.10
2018-04-22T10:53:30.989Z,40.10
2018-04-22T10:55:58.489Z,37.90
2018-04-22T10:58:26.310Z,40.50
2018-04-22T11:00:53.752Z,39.60
2018-04-22T11:03:21.198Z,39.60
2018-04-22T11:05:49.133Z,39.50
2018-04-22T11:08:17.134Z,37.70
2018-04-22T11:10:45.153Z,37.50
2018-04-22T11:13:12.533Z,37.90
2018-04-22T11:15:40.441Z,39.20
2018-04-22T11:18:08.433Z,38.00
2018-04-22T11:20:36.292Z,37.80
2018-04-22T11:23:04.234Z,37.30
2018-04-22T11:25:32.114Z,37.50
2018-04-22T11:28:00.014Z,39.40
2018-04-22T11:30:27.993Z,38.50
2018-04-22T11:32:55.992Z,39.10
2018-04-22T11:35:24.032Z,37.70
2018-04-22T11:37:51.821Z,38.00
2018-04-22T11:40:19.890Z,38.00
2018-04-22T11:42:47.650Z,37.50
2018-04-22T11:45:15.569Z,38.40
2018-04-22T11:47:44.395Z,38.10
2018-04-22T11:50:12.550Z,38.10
2018-04-22T11:52:40.418Z,38.30
2018-04-22T11:55:08.289Z,39.30
2018-04-22T11:57:36.289Z,37.10
2018-04-22T12:00:04.804Z,37.10
2018-04-22T12:02:32.670Z,38.70
2018-04-22T12:05:04.471Z,39.30
2018-04-22T12:07:32.490Z,38.40
2018-04-22T12:10:00.390Z,38.10
2018-04-22T12:12:28.338Z,36.40
2018-04-22T12:14:56.238Z,38.50
2018-04-22T12:17:24.210Z,38.20
2018-04-22T12:19:52.179Z,37.80
2018-04-22T12:22:20.070Z,37.30
2018-04-22T12:24:50.291Z,37.00
2018-04-22T12:27:18.252Z,36.20
2018-04-22T12:29:46.150Z,37.00
2018-04-22T12:32:13.971Z,36.40
2018-04-22T12:34:41.931Z,36.40
2018-04-22T12:37:09.894Z,38.20
2018-04-22T12:39:39.510Z,37.90
2018-04-22T12:42:07.509Z,36.60
2018-04-22T12:44:35.509Z,36.80
2018-04-22T12:47:03.869Z,36.80
2018-04-22T12:49:31.749Z,36.60
2018-04-22T12:52:00.469Z,36.90
2018-04-22T12:54:28.529Z,37.10
2018-04-22T12:56:56.689Z,37.40
2018-04-22T12:59:24.710Z,38.20
2018-04-22T13:01:53.137Z,38.00
2018-04-22T13:04:21.069Z,38.00
2018-04-22T13:06:49.012Z,36.90
2018-04-22T13:09:17.053Z,36.40
2018-04-22T13:11:45.169Z,37.00
2018-04-22T13:14:12.989Z,37.70
2018-04-22T13:16:40.930Z,38.80
2018-04-22T13:19:08.849Z,37.60
2018-04-22T13:21:38.229Z,37.60
2018-04-22T13:24:06.128Z,37.10
2018-04-22T13:26:34.069Z,38.50
2018-04-22T13:29:01.989Z,36.70
2018-04-22T13:31:29.969Z,38.10
2018-04-22T13:33:58.292Z,38.60
2018-04-22T13:36:26.599Z,37.50
2018-04-22T13:38:54.468Z,39.40
2018-04-22T13:41:22.435Z,38.40
2018-04-22T13:43:50.409Z,39.70
2018-04-22T13:46:18.215Z,39.20
2018-04-22T13:48:46.191Z,39.20
2018-04-22T13:51:15.171Z,38.60
2018-04-22T13:53:43.129Z,39.20
2018-04-22T13:56:11.852Z,38.80
2018-04-22T13:58:39.630Z,38.80
2018-04-22T14:01:07.529Z,40.20
2018-04-22T14:03:35.761Z,39.10
2018-04-22T14:06:03.811Z,40.70
2018-04-22T14:08:31.789Z,39.70
2018-04-22T14:10:59.651Z,39.60
2018-04-22T14:13:27.630Z,39.70
2018-04-22T14:15:55.671Z,38.80
2018-04-22T14:18:23.630Z,38.90
2018-04-22T14:20:51.849Z,39.10
2018-04-22T14:23:20.970Z,37.80
2018-04-22T14:25:49.068Z,37.80
2018-04-22T14:28:17.429Z,39.80
2018-04-22T14:30:45.269Z,40.00
2018-04-22T14:33:13.188Z,39.80
2018-04-22T14:35:41.089Z,38.30
2018-04-22T14:38:08.941Z,39.70
2018-04-22T14:40:36.888Z,39.50
2018-04-22T14:43:05.556Z,39.00
2018-04-22T14:45:45.288Z,39.00
2018-04-22T14:48:13.509Z,39.10
2018-04-22T14:50:41.453Z,40.30
2018-04-22T14:53:09.488Z,40.00
2018-04-22T14:55:37.449Z,39.30
2018-04-22T14:58:05.248Z,39.30
2018-04-22T15:00:33.092Z,39.40
2018-04-22T15:03:01.533Z,39.50
2018-04-22T15:05:29.597Z,40.30
2018-04-22T15:07:58.133Z,40.20
2018-04-22T15:10:26.121Z,40.70
2018-04-22T15:12:54.134Z,40.30
2018-04-22T15:15:22.354Z,40.40
2018-04-22T15:17:50.214Z,40.30
2018-04-22T15:20:18.274Z,39.80
2018-04-22T15:22:47.214Z,39.00
2018-04-22T15:25:15.235Z,40.70
2018-04-22T15:27:43.130Z,39.20
2018-04-22T15:30:11.070Z,39.40
2018-04-22T15:32:38.911Z,39.40
2018-04-22T15:35:06.750Z,39.30
2018-04-22T15:37:34.709Z,39.90
2018-04-22T15:40:02.710Z,40.70
2018-04-22T15:42:30.629Z,40.40
2018-04-22T15:44:58.634Z,41.50
2018-04-22T15:47:26.930Z,41.30
2018-04-22T15:49:54.932Z,41.90
2018-04-22T15:52:22.892Z,41.60
2018-04-22T15:54:50.931Z,42.10
2018-04-22T15:57:18.899Z,41.60
2018-04-22T15:59:46.712Z,42.20
2018-04-22T16:02:14.776Z,42.10
2018-04-22T16:04:42.850Z,42.90
2018-04-22T16:07:10.750Z,42.40
2018-04-22T16:09:39.255Z,42.30
2018-04-22T16:12:07.269Z,42.40
2018-04-22T16:14:35.601Z,41.60
2018-04-22T16:17:03.450Z,42.20
2018-04-22T16:19:31.529Z,42.60
2018-04-22T16:21:59.410Z,42.00
2018-04-22T16:24:27.348Z,42.00
2018-04-22T16:26:55.409Z,42.70
2018-04-22T16:29:23.288Z,43.50
2018-04-22T16:31:51.269Z,43.20
2018-04-22T16:34:19.948Z,41.60
2018-04-22T16:36:47.888Z,41.60
2018-04-22T16:39:16.008Z,43.60
2018-04-22T16:41:44.050Z,44.20
2018-04-22T16:44:12.070Z,44.70
2018-04-22T16:46:39.961Z,44.70
2018-04-22T16:49:07.911Z,44.70
2018-04-22T16:51:35.789Z,44.40
2018-04-22T16:54:04.590Z,44.40
2018-04-22T16:56:32.468Z,44.40
2018-04-22T16:59:00.328Z,44.30
2018-04-22T17:01:28.275Z,44.50
2018-04-22T17:03:56.175Z,44.80
2018-04-22T17:06:24.417Z,45.40
2018-04-22T17:08:54.147Z,44.50
2018-04-22T17:11:21.949Z,45.10
2018-04-22T17:13:49.906Z,45.40
2018-04-22T17:16:18.189Z,45.10
2018-04-22T17:18:46.094Z,45.00
2018-04-22T17:21:14.013Z,44.90
2018-04-22T17:23:43.101Z,44.90
2018-04-22T17:26:10.981Z,44.90
2018-04-22T17:28:38.393Z,45.10
2018-04-22T17:31:06.330Z,46.00
2018-04-22T17:33:34.169Z,47.00
2018-04-22T17:36:01.649Z,47.30
2018-04-22T17:38:29.170Z,47.10
2018-04-22T17:40:57.169Z,46.90
2018-04-22T17:43:25.489Z,46.50
2018-04-22T17:45:53.370Z,46.40
2018-04-22T17:48:21.469Z,46.50
2018-04-22T17:50:49.549Z,46.20
2018-04-22T17:53:17.489Z,46.30
2018-04-22T17:55:46.170Z,46.90
2018-04-22T17:58:14.891Z,46.90
2018-04-22T18:00:42.945Z,47.00
2018-04-22T18:03:10.873Z,47.40
2018-04-22T18:05:39.295Z,47.50
2018-04-22T18:08:07.174Z,47.50
2018-04-22T18:10:35.213Z,47.50
2018-04-22T18:13:03.013Z,47.50
2018-04-22T18:15:31.828Z,47.70
2018-04-22T18:17:59.968Z,47.70
2018-04-22T18:20:27.916Z,47.60
2018-04-22T18:22:55.641Z,47.60
2018-04-22T18:25:24.300Z,47.70
2018-04-22T18:27:52.190Z,47.90
2018-04-22T18:30:20.107Z,47.90
2018-04-22T18:32:48.033Z,48.20
2018-04-22T18:35:17.215Z,50.30
2018-04-22T18:37:45.130Z,50.30
2018-04-22T18:40:12.971Z,51.80
2018-04-22T18:42:41.735Z,51.20
2018-04-22T18:45:09.652Z,51.20
2018-04-22T18:47:37.672Z,51.80
2018-04-22T18:50:05.512Z,52.40
2018-04-22T18:52:33.657Z,51.10
2018-04-22T18:55:01.734Z,50.00
2018-04-22T18:57:30.294Z,49.80
2018-04-22T19:00:00.759Z,52.00
2018-04-22T19:02:30.389Z,51.90
2018-04-22T19:04:58.376Z,51.90
2018-04-22T19:07:26.449Z,48.60
2018-04-22T19:09:54.670Z,51.20
2018-04-22T19:12:22.589Z,48.30
2018-04-22T19:14:50.610Z,49.60
2018-04-22T19:17:18.951Z,52.90
2018-04-22T19:19:46.949Z,55.00
2018-04-22T19:22:15.031Z,54.40
2018-04-22T19:24:42.970Z,56.40
2018-04-22T19:27:10.970Z,57.90
2018-04-22T19:29:41.349Z,58.60
2018-04-22T19:32:09.409Z,58.60
2018-04-22T19:34:37.368Z,60.90
2018-04-22T19:37:05.291Z,60.20
2018-04-22T19:39:33.449Z,59.70
2018-04-22T19:42:01.455Z,59.50
2018-04-22T19:44:29.488Z,59.60
2018-04-22T19:46:57.368Z,59.70
2018-04-22T19:49:25.509Z,59.80
2018-04-22T19:51:53.453Z,59.70
2018-04-22T19:54:21.428Z,59.80
2018-04-22T19:59:21.595Z,60.00
2018-04-22T20:01:50.052Z,60.20
2018-04-22T20:04:18.074Z,60.30
2018-04-22T20:06:45.929Z,60.60
2018-04-22T20:09:13.774Z,60.90
2018-04-22T20:11:41.734Z,61.20
2018-04-22T20:14:09.808Z,61.10
2018-04-22T20:16:38.148Z,60.80
2018-04-22T20:19:05.848Z,60.70
2018-04-22T20:21:33.594Z,60.60
2018-04-22T20:24:01.851Z,60.60
2018-04-22T20:26:29.851Z,60.40
2018-04-22T20:28:57.771Z,60.40
2018-04-22T20:33:57.846Z,60.40
2018-04-22T20:36:25.750Z,60.60
2018-04-22T20:38:54.050Z,61.30
2018-04-22T20:41:24.283Z,61.70
2018-04-22T20:43:52.333Z,61.60
2018-04-22T20:46:20.107Z,61.50
2018-04-22T20:48:48.012Z,61.50
2018-04-22T20:51:15.991Z,61.70
2018-04-22T20:53:44.033Z,61.90
2018-04-22T20:56:11.869Z,62.00
2018-04-22T20:58:39.770Z,62.10
2018-04-22T21:01:07.651Z,61.60
2018-04-22T21:03:35.631Z,61.10
2018-04-22T21:06:03.977Z,60.80
2018-04-22T21:08:31.930Z,60.30
2018-04-22T21:10:59.890Z,59.40
2018-04-22T21:13:27.851Z,59.80
2018-04-22T21:15:55.890Z,59.90
2018-04-22T21:18:25.230Z,59.90
2018-04-22T21:20:53.209Z,60.30
2018-04-22T21:23:21.268Z,61.20
2018-04-22T21:25:49.269Z,60.40
2018-04-22T21:28:17.657Z,60.20
2018-04-22T21:30:45.712Z,60.10
2018-04-22T21:33:13.849Z,59.80
2018-04-22T21:35:41.758Z,59.80
2018-04-22T21:38:09.790Z,60.00
2018-04-22T21:40:37.790Z,60.10
2018-04-22T21:43:05.769Z,59.60
2018-04-22T21:45:33.890Z,59.40
2018-04-22T21:48:01.955Z,59.30
2018-04-22T21:50:30.189Z,59.50
2018-04-22T21:52:58.193Z,60.00
2018-04-22T21:55:26.210Z,61.40
2018-04-22T21:57:54.210Z,62.30
2018-04-22T22:00:21.941Z,63.00
2018-04-22T22:02:49.850Z,63.80
2018-04-22T22:05:17.790Z,64.20
2018-04-22T22:07:45.770Z,64.00
2018-04-22T22:10:13.766Z,64.00
2018-04-22T22:12:41.750Z,64.20
2018-04-22T22:17:41.710Z,64.10
2018-04-22T22:20:09.800Z,64.10
2018-04-22T22:22:37.810Z,63.90
2018-04-22T22:25:05.932Z,63.60
2018-04-22T22:27:33.858Z,63.50
2018-04-22T22:30:01.973Z,63.40
2018-04-22T22:32:30.033Z,63.30
2018-04-22T22:34:58.191Z,63.20
2018-04-22T22:37:26.451Z,63.30
2018-04-22T22:39:54.471Z,63.50
2018-04-22T22:42:22.500Z,64.40
2018-04-22T22:44:50.611Z,63.90
2018-04-22T22:47:20.319Z,63.90
2018-04-22T22:49:48.329Z,64.30
2018-04-22T22:52:16.249Z,64.80
2018-04-22T22:54:44.229Z,65.20
2018-04-22T22:57:12.174Z,65.40
2018-04-22T22:59:40.189Z,65.50
2018-04-22T23:02:09.010Z,66.20
2018-04-22T23:04:37.099Z,66.20
2018-04-22T23:07:05.070Z,66.20
2018-04-22T23:09:32.910Z,65.90
2018-04-22T23:12:00.731Z,65.60
2018-04-22T23:14:28.770Z,65.40
2018-04-22T23:16:57.012Z,65.50
2018-04-22T23:19:25.810Z,65.70
2018-04-22T23:21:53.770Z,65.70
2018-04-22T23:24:21.769Z,65.90
2018-04-22T23:26:49.650Z,66.30
2018-04-22T23:29:17.512Z,66.60
2018-04-22T23:31:45.490Z,66.70
2018-04-22T23:34:13.450Z,66.90
2018-04-22T23:36:41.643Z,67.10
2018-04-22T23:39:09.651Z,67.20
2018-04-22T23:41:37.930Z,67.40
2018-04-22T23:44:08.630Z,67.50
2018-04-22T23:46:36.850Z,67.60
2018-04-22T23:49:04.950Z,67.70
2018-04-22T23:51:32.850Z,68.60
2018-04-22T23:54:00.810Z,68.90
2018-04-22T23:56:28.709Z,69.30
2018-04-22T23:58:57.611Z,69.20
